Погода Хардапна неделю

Хардап, Намибия

22 - 28 февраля
  • 22февраля
    Сегодня
    +28°
    +42°
    Практически безоблачно
    ВремяПогодаТемператураВлажностьДавлениеВетер, м/сВероятность осадков
    02:00Ясно и безоблачно+32°C16 %669 мм5.5 м/с4 %
    05:00Практически безоблачно+27°C34 %668 мм5.0 м/с5 %
    08:00Ясно и безоблачно+29°C34 %670 мм3.7 м/с4 %
    11:00Ясно и безоблачно+37°C14 %671 мм2.4 м/с5 %
    14:00Практически безоблачно+41°C15 %670 мм3.3 м/с5 %
    17:00Практически безоблачно+42°C14 %668 мм3.4 м/с5 %
    20:00Небольшая облачность+39°C16 %668 мм3.6 м/с4 %
    23:00Практически безоблачно+35°C27 %669 мм6.6 м/с3 %
  • 23февраля
    Пятница
    +28°
    +43°
    Небольшая облачность
    ВремяПогодаТемператураВлажностьДавлениеВетер, м/сВероятность осадков
    02:00Небольшая облачность+32°C33 %668 мм4.2 м/с5 %
    05:00Ясно и безоблачно+29°C24 %668 мм3.7 м/с5 %
    08:00Небольшая облачность+30°C23 %669 мм0.9 м/с3 %
    11:00Облачно с прояснениями+38°C14 %670 мм0.9 м/с5 %
    14:00Небольшая облачность+41°C18 %670 мм7.9 м/с3 %
    17:00Облачно с прояснениями+41°C17 %668 мм4.7 м/с10 %
    20:00Облачно с прояснениями+36°C28 %669 мм5.9 м/с48 %
    23:00Пасмурно, сплошная облачность+33°C36 %670 мм8.1 м/с35 %
  • 24февраля
    Суббота
    +22°
    +41°
    Ясно и безоблачно
    ВремяПогодаТемператураВлажностьДавлениеВетер, м/сВероятность осадков
    02:00Облачно с прояснениями+30°C45 %669 мм3.7 м/с29 %
    05:00Пасмурно, сплошная облачность+29°C51 %669 мм4.2 м/с33 %
    08:00Практически безоблачно+30°C48 %671 мм2.2 м/с21 %
    11:00Практически безоблачно+36°C25 %672 мм2.5 м/с3 %
    14:00Ясно и безоблачно+40°C17 %671 мм4.6 м/с3 %
    17:00Практически безоблачно+40°C14 %669 мм5.5 м/с7 %
    20:00Облачно с прояснениями+39°C11 %669 мм6.7 м/с9 %
    23:00Ясно и безоблачно+33°C14 %671 мм7.5 м/с6 %
  • 25февраля
    Воскресенье
    +25°
    +39°
    Ясно и безоблачно
    ВремяПогодаТемператураВлажностьДавлениеВетер, м/сВероятность осадков
    02:00Ясно и безоблачно+28°C22 %670 мм5.3 м/с4 %
    05:00Ясно и безоблачно+24°C32 %670 мм4.5 м/с6 %
    08:00Ясно и безоблачно+24°C34 %672 мм4.2 м/с5 %
    11:00Ясно и безоблачно+32°C20 %673 мм3.5 м/с5 %
    14:00Ясно и безоблачно+37°C12 %672 мм2.3 м/с5 %
    17:00Ясно и безоблачно+39°C11 %670 мм2.3 м/с5 %
    20:00Ясно и безоблачно+36°C13 %670 мм4.6 м/с5 %
    23:00Ясно и безоблачно+33°C15 %671 мм5.2 м/с4 %
  • 26февраля
    Понедельник
    +27°
    +41°
    Ясно и безоблачно
    ВремяПогодаТемператураВлажностьДавлениеВетер, м/сВероятность осадков
    02:00Ясно и безоблачно+29°C18 %671 мм3.7 м/с5 %
    05:00Ясно и безоблачно+26°C24 %670 мм2.3 м/с5 %
    08:00Ясно и безоблачно+27°C23 %672 мм1.6 м/с5 %
    11:00Ясно и безоблачно+34°C14 %672 мм2.5 м/с7 %
    14:00Ясно и безоблачно+40°C11 %671 мм1.8 м/с4 %
    17:00Ясно и безоблачно+41°C10 %669 мм1.9 м/с6 %
    20:00Практически безоблачно+39°C11 %669 мм4.5 м/с20 %
    23:00Ясно и безоблачно+36°C15 %670 мм4.1 м/с22 %
Мы используем cookies
Соглашаюсь